sensor_id;sensor_type;location;lat;lon;timestamp;pressure;altitude;pressure_sealevel;temperature;humidity
54980;BME280;44101;50.462;30.432;2022-07-29T00:01:05;98303.38;;;18.73;46.83
54980;BME280;44101;50.462;30.432;2022-07-29T00:03:41;98310.75;;;18.73;46.30
54980;BME280;44101;50.462;30.432;2022-07-29T00:06:09;98316.47;;;18.71;46.87
54980;BME280;44101;50.462;30.432;2022-07-29T00:08:39;98328.22;;;18.72;46.91
54980;BME280;44101;50.462;30.432;2022-07-29T00:11:06;98330.38;;;18.69;46.81
54980;BME280;44101;50.462;30.432;2022-07-29T00:13:37;98340.75;;;18.67;46.90
54980;BME280;44101;50.462;30.432;2022-07-29T00:16:08;98350.81;;;18.67;47.05
54980;BME280;44101;50.462;30.432;2022-07-29T00:18:35;98363.41;;;18.68;46.83
54980;BME280;44101;50.462;30.432;2022-07-29T00:21:04;98366.38;;;18.66;47.34
54980;BME280;44101;50.462;30.432;2022-07-29T00:23:39;98370.19;;;18.65;46.94
54980;BME280;44101;50.462;30.432;2022-07-29T00:26:25;98384.94;;;18.64;47.31
54980;BME280;44101;50.462;30.432;2022-07-29T00:28:54;98387.91;;;18.63;47.59
54980;BME280;44101;50.462;30.432;2022-07-29T00:31:24;98389.22;;;18.60;46.71
54980;BME280;44101;50.462;30.432;2022-07-29T00:33:52;98401.00;;;18.61;47.17
54980;BME280;44101;50.462;30.432;2022-07-29T00:36:22;98402.31;;;18.58;46.92
54980;BME280;44101;50.462;30.432;2022-07-29T00:38:51;98409.09;;;18.55;47.18
54980;BME280;44101;50.462;30.432;2022-07-29T00:41:20;98413.72;;;18.55;46.97
54980;BME280;44101;50.462;30.432;2022-07-29T00:44:04;98421.09;;;18.54;47.70
54980;BME280;44101;50.462;30.432;2022-07-29T00:46:32;98430.38;;;18.53;47.12
54980;BME280;44101;50.462;30.432;2022-07-29T00:48:58;98435.84;;;18.53;47.62
54980;BME280;44101;50.462;30.432;2022-07-29T00:51:25;98445.13;;;18.52;47.34
54980;BME280;44101;50.462;30.432;2022-07-29T00:53:52;98446.44;;;18.50;47.45
54980;BME280;44101;50.462;30.432;2022-07-29T00:56:18;98449.41;;;18.48;47.62
54980;BME280;44101;50.462;30.432;2022-07-29T00:58:59;98460.31;;;18.48;47.11
54980;BME280;44101;50.462;30.432;2022-07-29T01:01:26;98466.88;;;18.47;47.37
54980;BME280;44101;50.462;30.432;2022-07-29T01:03:52;98473.41;;;18.46;47.69
54980;BME280;44101;50.462;30.432;2022-07-29T01:06:19;98479.91;;;18.45;47.62
54980;BME280;44101;50.462;30.432;2022-07-29T01:08:47;98477.69;;;18.42;47.80
54980;BME280;44101;50.462;30.432;2022-07-29T01:11:14;98473.31;;;18.41;47.87
54980;BME280;44101;50.462;30.432;2022-07-29T01:13:40;98471.91;;;18.38;48.23
54980;BME280;44101;50.462;30.432;2022-07-29T01:16:11;98483.91;;;18.37;48.03
54980;BME280;44101;50.462;30.432;2022-07-29T01:18:42;98495.88;;;18.36;48.01
54980;BME280;44101;50.462;30.432;2022-07-29T01:24:48;98508.94;;;18.34;48.47
54980;BME280;44101;50.462;30.432;2022-07-29T01:30:12;98515.97;;;18.30;48.18
54980;BME280;44101;50.462;30.432;2022-07-29T01:32:39;98539.22;;;18.33;48.59
54980;BME280;44101;50.462;30.432;2022-07-29T01:35:07;98543.88;;;18.32;47.86
54980;BME280;44101;50.462;30.432;2022-07-29T01:37:46;98541.38;;;18.31;48.02
54980;BME280;44101;50.462;30.432;2022-07-29T01:40:20;98546.50;;;18.27;48.12
54980;BME280;44101;50.462;30.432;2022-07-29T01:42:53;98550.31;;;18.26;48.79
54980;BME280;44101;50.462;30.432;2022-07-29T01:45:21;98541.78;;;18.22;48.88
54980;BME280;44101;50.462;30.432;2022-07-29T01:48:16;98542.25;;;18.19;48.36
54980;BME280;44101;50.462;30.432;2022-07-29T01:50:58;98542.50;;;18.18;48.51
54980;BME280;44101;50.462;30.432;2022-07-29T01:53:31;98549.88;;;18.17;48.93
54980;BME280;44101;50.462;30.432;2022-07-29T01:56:00;98560.78;;;18.17;48.63
54980;BME280;44101;50.462;30.432;2022-07-29T01:58:28;98571.69;;;18.17;49.05
54980;BME280;44101;50.462;30.432;2022-07-29T02:00:57;98563.19;;;18.13;48.68
54980;BME280;44101;50.462;30.432;2022-07-29T02:03:23;98561.75;;;18.11;49.23
54980;BME280;44101;50.462;30.432;2022-07-29T02:05:50;98556.78;;;18.08;48.73
54980;BME280;44101;50.462;30.432;2022-07-29T02:08:18;98560.78;;;18.05;48.56
54980;BME280;44101;50.462;30.432;2022-07-29T02:10:46;98560.22;;;18.03;49.39
54980;BME280;44101;50.462;30.432;2022-07-29T02:13:13;98564.81;;;18.02;48.77
54980;BME280;44101;50.462;30.432;2022-07-29T02:15:42;98577.66;;;18.02;48.78
54980;BME280;44101;50.462;30.432;2022-07-29T02:18:13;98581.19;;;18.02;48.99
54980;BME280;44101;50.462;30.432;2022-07-29T02:20:41;98583.59;;;17.99;48.89
54980;BME280;44101;50.462;30.432;2022-07-29T02:23:10;98594.50;;;17.99;49.60
54980;BME280;44101;50.462;30.432;2022-07-29T02:25:37;98590.97;;;17.98;49.08
54980;BME280;44101;50.462;30.432;2022-07-29T02:28:04;98615.84;;;18.02;48.81
54980;BME280;44101;50.462;30.432;2022-07-29T02:30:31;98622.13;;;18.02;48.86
54980;BME280;44101;50.462;30.432;2022-07-29T02:32:57;98633.31;;;18.01;49.34
54980;BME280;44101;50.462;30.432;2022-07-29T02:35:24;98642.06;;;18.03;49.75
54980;BME280;44101;50.462;30.432;2022-07-29T02:37:51;98650.25;;;18.03;49.83
54980;BME280;44101;50.462;30.432;2022-07-29T02:40:39;98671.84;;;18.05;49.09
54980;BME280;44101;50.462;30.432;2022-07-29T02:43:08;98695.13;;;18.07;49.21
54980;BME280;44101;50.462;30.432;2022-07-29T02:45:34;98708.28;;;18.10;49.09
54980;BME280;44101;50.462;30.432;2022-07-29T02:48:05;98730.44;;;18.14;49.76
54980;BME280;44101;50.462;30.432;2022-07-29T02:50:34;98748.25;;;18.17;49.23
54980;BME280;44101;50.462;30.432;2022-07-29T02:53:09;98777.53;;;18.21;49.26
54980;BME280;44101;50.462;30.432;2022-07-29T02:55:45;98802.44;;;18.25;49.27
54980;BME280;44101;50.462;30.432;2022-07-29T02:58:30;98811.25;;;18.27;49.29
54980;BME280;44101;50.462;30.432;2022-07-29T03:01:00;98836.16;;;18.31;49.34
54980;BME280;44101;50.462;30.432;2022-07-29T03:03:31;98859.22;;;18.35;49.73
54980;BME280;44101;50.462;30.432;2022-07-29T03:06:00;98879.25;;;18.40;50.14
54980;BME280;44101;50.462;30.432;2022-07-29T03:08:27;98897.06;;;18.43;49.84
54980;BME280;44101;50.462;30.432;2022-07-29T03:10:53;98923.41;;;18.49;49.22
54980;BME280;44101;50.462;30.432;2022-07-29T03:13:21;98941.00;;;18.53;50.14
54980;BME280;44101;50.462;30.432;2022-07-29T03:15:47;98973.88;;;18.59;49.84
54980;BME280;44101;50.462;30.432;2022-07-29T03:18:13;99004.03;;;18.64;49.50
54980;BME280;44101;50.462;30.432;2022-07-29T03:20:40;99014.28;;;18.68;49.61
54980;BME280;44101;50.462;30.432;2022-07-29T03:23:07;99035.63;;;18.72;49.92
54980;BME280;44101;50.462;30.432;2022-07-29T03:25:33;99046.91;;;18.75;49.33
54980;BME280;44101;50.462;30.432;2022-07-29T03:27:59;99059.03;;;18.79;49.32
54980;BME280;44101;50.462;30.432;2022-07-29T03:30:24;99084.56;;;18.85;49.57
54980;BME280;44101;50.462;30.432;2022-07-29T03:32:51;99112.88;;;18.91;49.68
54980;BME280;44101;50.462;30.432;2022-07-29T03:35:17;99145.31;;;18.99;49.45
54980;BME280;44101;50.462;30.432;2022-07-29T03:37:43;99185.16;;;19.07;50.19
54980;BME280;44101;50.462;30.432;2022-07-29T03:40:11;99219.31;;;19.16;49.74
54980;BME280;44101;50.462;30.432;2022-07-29T03:42:40;99254.50;;;19.25;49.37
54980;BME280;44101;50.462;30.432;2022-07-29T03:45:12;99286.97;;;19.33;49.89
54980;BME280;44101;50.462;30.432;2022-07-29T03:47:45;99315.88;;;19.41;50.09
54980;BME280;44101;50.462;30.432;2022-07-29T03:50:14;99345.03;;;19.47;49.71
54980;BME280;44101;50.462;30.432;2022-07-29T03:52:40;99366.19;;;19.52;49.81
54980;BME280;44101;50.462;30.432;2022-07-29T03:55:07;99395.97;;;19.60;49.20
54980;BME280;44101;50.462;30.432;2022-07-29T03:57:34;99425.72;;;19.68;49.35
54980;BME280;44101;50.462;30.432;2022-07-29T04:00:03;99462.41;;;19.79;49.87
54980;BME280;44101;50.462;30.432;2022-07-29T04:02:31;99501.19;;;19.88;49.46
54980;BME280;44101;50.462;30.432;2022-07-29T04:04:57;99532.06;;;19.95;49.15
54980;BME280;44101;50.462;30.432;2022-07-29T04:07:23;99559.16;;;20.03;48.95
54980;BME280;44101;50.462;30.432;2022-07-29T04:09:49;99581.78;;;20.11;48.83
54980;BME280;44101;50.462;30.432;2022-07-29T04:12:14;99611.59;;;20.19;49.46
54980;BME280;44101;50.462;30.432;2022-07-29T04:14:41;99641.38;;;20.27;49.43
54980;BME280;44101;50.462;30.432;2022-07-29T04:17:07;99687.97;;;20.39;49.46
54980;BME280;44101;50.462;30.432;2022-07-29T04:19:33;99707.66;;;20.48;48.97
54980;BME280;44101;50.462;30.432;2022-07-29T04:21:59;99726.16;;;20.53;49.29
54980;BME280;44101;50.462;30.432;2022-07-29T04:24:27;99708.28;;;20.50;49.38
54980;BME280;44101;50.462;30.432;2022-07-29T04:26:53;99697.56;;;20.49;48.76
54980;BME280;44101;50.462;30.432;2022-07-29T04:29:19;99719.41;;;20.55;49.42
54980;BME280;44101;50.462;30.432;2022-07-29T04:31:45;99743.72;;;20.64;49.38
54980;BME280;44101;50.462;30.432;2022-07-29T04:34:12;99774.38;;;20.73;49.03
54980;BME280;44101;50.462;30.432;2022-07-29T04:36:38;99793.50;;;20.79;49.19
54980;BME280;44101;50.462;30.432;2022-07-29T04:39:04;99818.94;;;20.87;48.93
54980;BME280;44101;50.462;30.432;2022-07-29T04:41:30;99847.94;;;20.94;48.97
54980;BME280;44101;50.462;30.432;2022-07-29T04:43:56;99877.53;;;21.04;48.74
54980;BME280;44101;50.462;30.432;2022-07-29T04:46:22;99911.78;;;21.14;48.96
54980;BME280;44101;50.462;30.432;2022-07-29T04:48:48;99945.00;;;21.24;48.64
54980;BME280;44101;50.462;30.432;2022-07-29T04:51:15;99963.84;;;21.32;48.48
54980;BME280;44101;50.462;30.432;2022-07-29T04:53:42;99987.63;;;21.39;48.54
54980;BME280;44101;50.462;30.432;2022-07-29T04:56:08;100009.28;;;21.47;48.31
54980;BME280;44101;50.462;30.432;2022-07-29T04:58:34;100033.66;;;21.55;48.04
54980;BME280;44101;50.462;30.432;2022-07-29T05:01:00;100056.34;;;21.62;48.27
54980;BME280;44101;50.462;30.432;2022-07-29T05:03:26;100068.94;;;21.70;48.19
54980;BME280;44101;50.462;30.432;2022-07-29T05:05:52;100088.31;;;21.75;47.72
54980;BME280;44101;50.462;30.432;2022-07-29T05:08:19;100124.31;;;21.86;48.16
54980;BME280;44101;50.462;30.432;2022-07-29T05:10:45;100146.78;;;21.95;48.28
54980;BME280;44101;50.462;30.432;2022-07-29T05:13:11;100164.03;;;22.02;48.32
54980;BME280;44101;50.462;30.432;2022-07-29T05:15:37;100178.72;;;22.08;48.28
54980;BME280;44101;50.462;30.432;2022-07-29T05:18:03;100200.63;;;22.14;47.92
54980;BME280;44101;50.462;30.432;2022-07-29T05:20:29;100215.97;;;22.22;47.44
54980;BME280;44101;50.462;30.432;2022-07-29T05:22:59;100228.53;;;22.30;47.72
54980;BME280;44101;50.462;30.432;2022-07-29T05:25:28;100259.03;;;22.40;47.23
54980;BME280;44101;50.462;30.432;2022-07-29T05:27:54;100276.28;;;22.48;47.02
54980;BME280;44101;50.462;30.432;2022-07-29T05:30:21;100290.19;;;22.53;47.40
54980;BME280;44101;50.462;30.432;2022-07-29T05:32:46;100284.25;;;22.56;46.99
54980;BME280;44101;50.462;30.432;2022-07-29T05:35:12;100248.34;;;22.51;47.10
54980;BME280;44101;50.462;30.432;2022-07-29T05:37:38;100212.47;;;22.46;46.62
54980;BME280;44101;50.462;30.432;2022-07-29T05:40:05;100206.97;;;22.46;47.00
54980;BME280;44101;50.462;30.432;2022-07-29T05:42:31;100177.44;;;22.41;47.13
54980;BME280;44101;50.462;30.432;2022-07-29T05:44:57;100129.38;;;22.31;46.84
54980;BME280;44101;50.462;30.432;2022-07-29T05:47:23;100106.56;;;22.31;46.68
54980;BME280;44101;50.462;30.432;2022-07-29T05:49:49;100107.41;;;22.31;46.56
54980;BME280;44101;50.462;30.432;2022-07-29T05:52:16;100138.75;;;22.42;46.46
54980;BME280;44101;50.462;30.432;2022-07-29T05:54:42;100164.84;;;22.52;46.34
54980;BME280;44101;50.462;30.432;2022-07-29T05:57:08;100232.69;;;22.70;46.08
54980;BME280;44101;50.462;30.432;2022-07-29T05:59:36;100198.47;;;22.66;45.72
54980;BME280;44101;50.462;30.432;2022-07-29T06:02:02;100168.94;;;22.61;45.61
54980;BME280;44101;50.462;30.432;2022-07-29T06:04:31;100183.66;;;22.67;45.79
54980;BME280;44101;50.462;30.432;2022-07-29T06:06:57;100186.53;;;22.72;45.79
54980;BME280;44101;50.462;30.432;2022-07-29T06:09:22;100200.78;;;22.81;45.48
54980;BME280;44101;50.462;30.432;2022-07-29T06:11:48;100227.94;;;22.89;45.83
54980;BME280;44101;50.462;30.432;2022-07-29T06:14:14;100257.59;;;22.99;45.36
54980;BME280;44101;50.462;30.432;2022-07-29T06:16:40;100257.38;;;23.01;45.31
54980;BME280;44101;50.462;30.432;2022-07-29T06:19:06;100239.78;;;23.02;45.69
54980;BME280;44101;50.462;30.432;2022-07-29T06:21:32;100302.38;;;23.18;44.99
54980;BME280;44101;50.462;30.432;2022-07-29T06:23:59;100363.50;;;23.39;45.21
54980;BME280;44101;50.462;30.432;2022-07-29T06:26:25;100452.13;;;23.60;44.95
54980;BME280;44101;50.462;30.432;2022-07-29T06:28:51;100513.22;;;23.81;44.85
54980;BME280;44101;50.462;30.432;2022-07-29T06:31:16;100550.75;;;23.94;45.11
54980;BME280;44101;50.462;30.432;2022-07-29T06:33:43;100564.44;;;24.00;45.35
54980;BME280;44101;50.462;30.432;2022-07-29T06:36:08;100618.44;;;24.20;44.74
54980;BME280;44101;50.462;30.432;2022-07-29T06:38:34;100686.84;;;24.42;44.67
54980;BME280;44101;50.462;30.432;2022-07-29T06:41:00;100753.53;;;24.63;44.61
54980;BME280;44101;50.462;30.432;2022-07-29T06:43:35;100791.94;;;24.76;44.49
54980;BME280;44101;50.462;30.432;2022-07-29T06:46:07;100834.38;;;24.94;44.06
54980;BME280;44101;50.462;30.432;2022-07-29T06:48:34;100884.47;;;25.09;44.23
54980;BME280;44101;50.462;30.432;2022-07-29T06:51:02;100901.56;;;25.18;43.38
54980;BME280;44101;50.462;30.432;2022-07-29T06:53:29;100902.50;;;25.24;43.45
54980;BME280;44101;50.462;30.432;2022-07-29T06:55:54;100888.25;;;25.27;43.75
54980;BME280;44101;50.462;30.432;2022-07-29T06:58:21;100883.09;;;25.31;43.21
54980;BME280;44101;50.462;30.432;2022-07-29T07:00:58;100864.59;;;25.31;43.53
54980;BME280;44101;50.462;30.432;2022-07-29T07:03:24;100845.03;;;25.33;42.94
54980;BME280;44101;50.462;30.432;2022-07-29T07:05:51;100870.16;;;25.43;42.98
54980;BME280;44101;50.462;30.432;2022-07-29T07:08:17;100903.97;;;25.57;43.28
54980;BME280;44101;50.462;30.432;2022-07-29T07:10:44;100906.59;;;25.64;42.33
54980;BME280;44101;50.462;30.432;2022-07-29T07:13:10;100914.78;;;25.71;42.58
54980;BME280;44101;50.462;30.432;2022-07-29T07:15:36;100921.88;;;25.78;42.22
54980;BME280;44101;50.462;30.432;2022-07-29T07:18:03;100904.44;;;25.78;41.98
54980;BME280;44101;50.462;30.432;2022-07-29T07:20:29;100887.66;;;25.79;42.06
54980;BME280;44101;50.462;30.432;2022-07-29T07:22:54;100901.31;;;25.86;42.23
54980;BME280;44101;50.462;30.432;2022-07-29T07:25:20;100890.41;;;25.91;42.16
54980;BME280;44101;50.462;30.432;2022-07-29T07:27:46;100841.03;;;25.83;41.75
54980;BME280;44101;50.462;30.432;2022-07-29T07:30:13;100835.00;;;25.86;41.47
54980;BME280;44101;50.462;30.432;2022-07-29T07:32:38;100845.72;;;25.95;41.64
54980;BME280;44101;50.462;30.432;2022-07-29T07:35:06;100871.66;;;26.05;41.28
54980;BME280;44101;50.462;30.432;2022-07-29T07:37:32;100825.06;;;25.97;41.00
54980;BME280;44101;50.462;30.432;2022-07-29T07:40:00;100802.72;;;25.99;41.38
54980;BME280;44101;50.462;30.432;2022-07-29T07:42:26;100833.31;;;26.09;41.01
54980;BME280;44101;50.462;30.432;2022-07-29T07:44:52;100864.34;;;26.23;40.75
54980;BME280;44101;50.462;30.432;2022-07-29T07:47:18;100916.94;;;26.40;41.19
54980;BME280;44101;50.462;30.432;2022-07-29T07:49:50;100981.03;;;26.61;41.30
54980;BME280;44101;50.462;30.432;2022-07-29T07:52:18;101026.25;;;26.79;40.79
54980;BME280;44101;50.462;30.432;2022-07-29T07:54:44;101006.63;;;26.80;40.47
54980;BME280;44101;50.462;30.432;2022-07-29T07:57:12;100906.56;;;26.59;40.75
54980;BME280;44101;50.462;30.432;2022-07-29T07:59:38;100879.16;;;26.58;40.04
54980;BME280;44101;50.462;30.432;2022-07-29T08:02:04;100880.13;;;26.64;39.93
54980;BME280;44101;50.462;30.432;2022-07-29T08:04:30;100900.75;;;26.73;40.42
54980;BME280;44101;50.462;30.432;2022-07-29T08:06:57;100825.53;;;26.59;40.18
54980;BME280;44101;50.462;30.432;2022-07-29T08:09:24;100803.41;;;26.59;39.85
54980;BME280;44101;50.462;30.432;2022-07-29T08:11:51;100792.06;;;26.61;40.13
54980;BME280;44101;50.462;30.432;2022-07-29T08:14:17;100824.97;;;26.74;39.59
54980;BME280;44101;50.462;30.432;2022-07-29T08:16:43;100899.59;;;26.98;39.61
54980;BME280;44101;50.462;30.432;2022-07-29T08:19:09;100889.97;;;27.01;39.43
54980;BME280;44101;50.462;30.432;2022-07-29T08:21:37;100887.31;;;27.06;39.40
54980;BME280;44101;50.462;30.432;2022-07-29T08:24:03;100812.28;;;26.90;39.33
54980;BME280;44101;50.462;30.432;2022-07-29T08:26:47;100886.91;;;27.14;39.23
54980;BME280;44101;50.462;30.432;2022-07-29T08:29:13;101031.66;;;27.56;39.22
54980;BME280;44101;50.462;30.432;2022-07-29T08:31:39;101128.69;;;27.85;39.08
54980;BME280;44101;50.462;30.432;2022-07-29T08:34:05;101149.16;;;27.96;38.84
54980;BME280;44101;50.462;30.432;2022-07-29T08:36:32;101116.38;;;27.92;38.94
54980;BME280;44101;50.462;30.432;2022-07-29T08:38:58;101112.59;;;27.99;38.78
54980;BME280;44101;50.462;30.432;2022-07-29T08:41:24;101102.69;;;28.03;38.74
54980;BME280;44101;50.462;30.432;2022-07-29T08:43:50;101109.78;;;28.11;38.65
54980;BME280;44101;50.462;30.432;2022-07-29T08:46:16;101001.53;;;27.88;38.53
54980;BME280;44101;50.462;30.432;2022-07-29T08:48:42;100914.03;;;27.75;38.56
54980;BME280;44101;50.462;30.432;2022-07-29T08:51:15;100929.41;;;27.83;38.33
54980;BME280;44101;50.462;30.432;2022-07-29T08:53:42;100903.59;;;27.83;38.54
54980;BME280;44101;50.462;30.432;2022-07-29T08:56:11;100924.28;;;27.92;37.71
54980;BME280;44101;50.462;30.432;2022-07-29T08:58:39;101020.13;;;28.22;37.60
54980;BME280;44101;50.462;30.432;2022-07-29T09:01:06;100973.13;;;28.15;38.13
54980;BME280;44101;50.462;30.432;2022-07-29T09:03:33;100989.13;;;28.25;37.71
54980;BME280;44101;50.462;30.432;2022-07-29T09:06:02;100991.97;;;28.30;37.91
54980;BME280;44101;50.462;30.432;2022-07-29T09:08:30;100947.50;;;28.25;37.70
54980;BME280;44101;50.462;30.432;2022-07-29T09:10:56;100863.00;;;28.11;37.46
54980;BME280;44101;50.462;30.432;2022-07-29T09:13:22;100759.81;;;27.86;37.56
54980;BME280;44101;50.462;30.432;2022-07-29T09:15:48;100713.47;;;27.82;37.57
54980;BME280;44101;50.462;30.432;2022-07-29T09:21:05;100550.69;;;27.49;37.68
54980;BME280;44101;50.462;30.432;2022-07-29T09:24:07;100526.03;;;27.48;37.70
54980;BME280;44101;50.462;30.432;2022-07-29T09:26:35;100502.47;;;27.45;37.25
54980;BME280;44101;50.462;30.432;2022-07-29T09:29:17;100495.81;;;27.46;37.20
54980;BME280;44101;50.462;30.432;2022-07-29T09:31:46;100556.69;;;27.63;37.04
54980;BME280;44101;50.462;30.432;2022-07-29T09:34:14;100598.44;;;27.79;36.87
54980;BME280;44101;50.462;30.432;2022-07-29T09:36:45;100627.09;;;27.90;36.94
54980;BME280;44101;50.462;30.432;2022-07-29T09:39:12;100677.72;;;28.08;36.63
54980;BME280;44101;50.462;30.432;2022-07-29T09:41:50;100609.41;;;27.96;36.77
54980;BME280;44101;50.462;30.432;2022-07-29T09:44:20;100556.63;;;27.86;37.05
54980;BME280;44101;50.462;30.432;2022-07-29T09:46:57;100601.16;;;28.01;36.81
54980;BME280;44101;50.462;30.432;2022-07-29T09:49:24;100622.59;;;28.11;36.88
54980;BME280;44101;50.462;30.432;2022-07-29T09:52:09;100649.59;;;28.21;36.56
54980;BME280;44101;50.462;30.432;2022-07-29T09:54:36;100627.41;;;28.21;36.49
54980;BME280;44101;50.462;30.432;2022-07-29T09:57:07;100566.59;;;28.09;36.35
54980;BME280;44101;50.462;30.432;2022-07-29T09:59:34;100511.88;;;27.99;36.55
54980;BME280;44101;50.462;30.432;2022-07-29T10:02:00;100476.91;;;27.93;36.31
54980;BME280;44101;50.462;30.432;2022-07-29T10:04:46;100457.75;;;27.91;36.87
54980;BME280;44101;50.462;30.432;2022-07-29T10:07:12;100457.22;;;27.95;36.49
54980;BME280;44101;50.462;30.432;2022-07-29T10:09:37;100491.13;;;28.07;36.26
54980;BME280;44101;50.462;30.432;2022-07-29T10:12:13;100458.69;;;28.02;36.44
54980;BME280;44101;50.462;30.432;2022-07-29T10:14:40;100381.22;;;27.85;36.16
54980;BME280;44101;50.462;30.432;2022-07-29T10:17:07;100374.31;;;27.88;36.04
54980;BME280;44101;50.462;30.432;2022-07-29T10:19:37;100505.72;;;28.25;36.16
54980;BME280;44101;50.462;30.432;2022-07-29T10:22:07;100620.28;;;28.58;36.04
54980;BME280;44101;50.462;30.432;2022-07-29T10:24:34;100713.72;;;28.85;35.91
54980;BME280;44101;50.462;30.432;2022-07-29T10:27:02;100731.63;;;28.94;36.09
54980;BME280;44101;50.462;30.432;2022-07-29T10:29:29;100652.06;;;28.78;36.04
54980;BME280;44101;50.462;30.432;2022-07-29T10:32:22;100597.88;;;28.70;36.28
54980;BME280;44101;50.462;30.432;2022-07-29T10:35:18;100547.88;;;28.59;35.96
54980;BME280;44101;50.462;30.432;2022-07-29T10:40:28;100508.19;;;28.59;35.63
54980;BME280;44101;50.462;30.432;2022-07-29T10:43:22;100547.41;;;28.73;35.60
54980;BME280;44101;50.462;30.432;2022-07-29T10:45:55;100569.94;;;28.82;35.64
54980;BME280;44101;50.462;30.432;2022-07-29T10:48:24;100407.69;;;28.46;35.46
54980;BME280;44101;50.462;30.432;2022-07-29T10:50:53;100360.47;;;28.36;35.92
54980;BME280;44101;50.462;30.432;2022-07-29T10:53:24;100416.59;;;28.54;35.67
54980;BME280;44101;50.462;30.432;2022-07-29T10:55:51;100509.16;;;28.80;35.87
54980;BME280;44101;50.462;30.432;2022-07-29T10:58:21;100510.06;;;28.86;35.49
54980;BME280;44101;50.462;30.432;2022-07-29T11:00:54;100572.59;;;29.04;35.61
54980;BME280;44101;50.462;30.432;2022-07-29T11:03:45;100667.72;;;29.32;35.42
54980;BME280;44101;50.462;30.432;2022-07-29T11:06:12;100739.59;;;29.56;35.56
54980;BME280;44101;50.462;30.432;2022-07-29T11:08:38;100778.00;;;29.70;35.27
54980;BME280;44101;50.462;30.432;2022-07-29T11:11:32;100774.16;;;29.76;35.23
54980;BME280;44101;50.462;30.432;2022-07-29T11:13:58;100752.44;;;29.73;34.80
54980;BME280;44101;50.462;30.432;2022-07-29T11:16:24;100496.03;;;29.13;35.12
54980;BME280;44101;50.462;30.432;2022-07-29T11:21:42;100222.69;;;28.52;35.19
54980;BME280;44101;50.462;30.432;2022-07-29T11:24:13;100266.56;;;28.66;34.90
54980;BME280;44101;50.462;30.432;2022-07-29T11:26:39;100348.50;;;28.89;35.27
54980;BME280;44101;50.462;30.432;2022-07-29T11:29:20;100520.81;;;29.36;34.90
54980;BME280;44101;50.462;30.432;2022-07-29T11:31:52;100671.31;;;29.76;34.79
54980;BME280;44101;50.462;30.432;2022-07-29T11:34:30;100823.59;;;30.22;34.79
54980;BME280;44101;50.462;30.432;2022-07-29T11:39:33;101051.91;;;30.91;34.61
54980;BME280;44101;50.462;30.432;2022-07-29T11:44:59;101001.78;;;30.91;34.43
54980;BME280;44101;50.462;30.432;2022-07-29T11:47:35;100889.75;;;30.68;34.34
54980;BME280;44101;50.462;30.432;2022-07-29T11:50:16;100793.38;;;30.52;34.12
54980;BME280;44101;50.462;30.432;2022-07-29T11:52:44;100703.75;;;30.34;34.14
54980;BME280;44101;50.462;30.432;2022-07-29T11:55:22;100764.47;;;30.53;34.20
54980;BME280;44101;50.462;30.432;2022-07-29T11:57:58;100887.06;;;30.89;34.07
54980;BME280;44101;50.462;30.432;2022-07-29T12:03:02;100863.09;;;30.93;33.88
54980;BME280;44101;50.462;30.432;2022-07-29T12:05:39;100829.69;;;30.93;33.75
54980;BME280;44101;50.462;30.432;2022-07-29T12:08:12;100915.50;;;31.17;33.90
54980;BME280;44101;50.462;30.432;2022-07-29T12:10:38;100962.34;;;31.36;33.82
54980;BME280;44101;50.462;30.432;2022-07-29T12:13:04;101078.41;;;31.73;33.70
54980;BME280;44101;50.462;30.432;2022-07-29T12:15:30;101152.38;;;31.97;33.30
54980;BME280;44101;50.462;30.432;2022-07-29T12:17:56;101233.91;;;32.25;33.30
54980;BME280;44101;50.462;30.432;2022-07-29T12:20:30;101201.50;;;32.24;33.40
54980;BME280;44101;50.462;30.432;2022-07-29T12:23:05;100946.50;;;31.67;33.16
54980;BME280;44101;50.462;30.432;2022-07-29T12:25:33;101088.78;;;32.09;33.17
54980;BME280;44101;50.462;30.432;2022-07-29T12:28:04;101427.28;;;32.99;32.86
54980;BME280;44101;50.462;30.432;2022-07-29T12:30:40;101434.84;;;33.09;32.91
54980;BME280;44101;50.462;30.432;2022-07-29T12:35:46;100663.13;;;31.32;32.61
54980;BME280;44101;50.462;30.432;2022-07-29T12:38:12;100456.03;;;30.86;32.01
54980;BME280;44101;50.462;30.432;2022-07-29T12:40:38;100345.06;;;30.58;32.39
54980;BME280;44101;50.462;30.432;2022-07-29T12:43:15;100165.84;;;30.14;32.57
54980;BME280;44101;50.462;30.432;2022-07-29T12:48:51;99970.09;;;29.70;32.62
54980;BME280;44101;50.462;30.432;2022-07-29T12:51:37;100103.00;;;30.08;32.59
54980;BME280;44101;50.462;30.432;2022-07-29T12:54:11;100264.66;;;30.52;32.92
54980;BME280;44101;50.462;30.432;2022-07-29T12:56:39;100257.44;;;30.51;32.61
54980;BME280;44101;50.462;30.432;2022-07-29T13:01:44;99938.41;;;29.76;32.47
54980;BME280;44101;50.462;30.432;2022-07-29T13:04:10;99876.25;;;29.62;32.30
54980;BME280;44101;50.462;30.432;2022-07-29T13:06:37;99858.50;;;29.58;32.86
54980;BME280;44101;50.462;30.432;2022-07-29T13:09:15;99863.75;;;29.59;32.57
54980;BME280;44101;50.462;30.432;2022-07-29T13:11:51;99857.41;;;29.59;32.47
54980;BME280;44101;50.462;30.432;2022-07-29T13:14:39;99776.41;;;29.41;32.84
54980;BME280;44101;50.462;30.432;2022-07-29T13:17:19;99681.63;;;29.18;32.64
54980;BME280;44101;50.462;30.432;2022-07-29T13:19:53;99624.81;;;29.05;32.48
54980;BME280;44101;50.462;30.432;2022-07-29T13:22:21;99640.06;;;29.08;32.88
54980;BME280;44101;50.462;30.432;2022-07-29T13:27:21;99725.66;;;29.30;33.13